SAS2832 LDSP-EKCH
Flight info
| Callsign | SAS2832 |
|---|---|
| Flight time | N/A |
| Altitude | 34000 |
| Route | SIRMI DCT PETOV DCT ROPAG DCT LOKVU/N0437F360 DCT ODLIV DCT HDO DCT LUROS DCT GEVNI T239 PEROM T298 MONAK |
| Aircraft | MD82/M-SDFGHRWY/C |
Departure
| Time | 2026-04-30 13:38 |
|---|---|
| Airport | Split Saint Jerome Airport (LDSP) |
Arrival
| Time | N/A |
|---|---|
| Airport | Copenhagen Kastrup Airport (EKCH) |
| Time | Latitude | Longitude | Altitude | Speed | Heading |
|---|---|---|---|---|---|
| 2026-04-30 13:27 | 43.53727 | 16.29866 | 69 ft | 0 kts | 113° |
| 2026-04-30 13:32 | 43.53726 | 16.29877 | 69 ft | 2 kts | 89° |
| 2026-04-30 13:33 | 43.53759 | 16.29854 | 69 ft | 9 kts | 269° |
| 2026-04-30 13:33 | 43.53694 | 16.29671 | 63 ft | 12 kts | 248° |
| 2026-04-30 13:34 | 43.53694 | 16.29528 | 71 ft | 17 kts | 276° |
| 2026-04-30 13:34 | 43.53468 | 16.29015 | 87 ft | 30 kts | 230° |
| 2026-04-30 13:35 | 43.53336 | 16.28797 | 88 ft | 30 kts | 230° |
| 2026-04-30 13:35 | 43.53189 | 16.28584 | 84 ft | 3 kts | 272° |
| 2026-04-30 13:36 | 43.53210 | 16.28576 | 86 ft | 2 kts | 30° |
| 2026-04-30 13:36 | 43.53228 | 16.28596 | 84 ft | 0 kts | 51° |
| 2026-04-30 13:36 | 43.53228 | 16.28597 | 84 ft | 1 kts | 51° |
| 2026-04-30 13:37 | 43.53261 | 16.28654 | 89 ft | 23 kts | 52° |
| 2026-04-30 13:37 | 43.53952 | 16.29894 | 70 ft | 141 kts | 53° |
| 2026-04-30 13:38 | 43.55008 | 16.32258 | 1407 ft | 149 kts | 81° |
| 2026-04-30 13:38 | 43.54786 | 16.33676 | 2164 ft | 153 kts | 107° |
| 2026-04-30 13:38 | 43.53889 | 16.36389 | 3377 ft | 170 kts | 143° |
| 2026-04-30 13:39 | 43.51937 | 16.35894 | 4067 ft | 197 kts | 230° |
| 2026-04-30 13:39 | 43.51047 | 16.32892 | 5374 ft | 199 kts | 293° |
| 2026-04-30 13:40 | 43.52099 | 16.31516 | 5667 ft | 228 kts | 338° |
| 2026-04-30 13:40 | 43.53388 | 16.31006 | 6544 ft | 219 kts | 344° |
| 2026-04-30 13:40 | 43.54734 | 16.30754 | 7366 ft | 223 kts | 354° |
| 2026-04-30 13:40 | 43.56390 | 16.30681 | 7576 ft | 253 kts | 359° |
| 2026-04-30 13:41 | 43.57436 | 16.30686 | 7834 ft | 261 kts | 1° |
| 2026-04-30 13:41 | 43.59263 | 16.30722 | 8611 ft | 264 kts | 3° |
| 2026-04-30 13:41 | 43.61110 | 16.30784 | 9395 ft | 266 kts | 4° |
| 2026-04-30 13:41 | 43.62976 | 16.30846 | 10077 ft | 272 kts | 3° |
| 2026-04-30 13:42 | 43.64908 | 16.30877 | 10465 ft | 288 kts | 2° |
| 2026-04-30 13:42 | 43.66992 | 16.30877 | 10657 ft | 310 kts | 1° |
| 2026-04-30 13:42 | 43.71527 | 16.30761 | 11360 ft | 336 kts | 359° |
| 2026-04-30 13:43 | 43.73873 | 16.30672 | 12035 ft | 338 kts | 359° |
| 2026-04-30 13:43 | 43.76232 | 16.30604 | 12667 ft | 341 kts | 0° |
| 2026-04-30 13:43 | 43.78609 | 16.30570 | 13356 ft | 343 kts | 0° |
| 2026-04-30 13:43 | 43.80999 | 16.30546 | 13999 ft | 345 kts | 360° |
| 2026-04-30 13:44 | 43.83408 | 16.30526 | 14558 ft | 348 kts | 359° |
| 2026-04-30 13:44 | 43.85843 | 16.30506 | 15130 ft | 351 kts | 359° |
| 2026-04-30 13:44 | 43.88291 | 16.30493 | 15770 ft | 353 kts | 359° |
| 2026-04-30 13:44 | 43.90752 | 16.30480 | 16366 ft | 355 kts | 359° |
| 2026-04-30 13:45 | 43.95731 | 16.30452 | 17485 ft | 360 kts | 358° |
| 2026-04-30 13:45 | 43.98246 | 16.30438 | 18028 ft | 362 kts | 359° |
| 2026-04-30 13:45 | 44.00778 | 16.30422 | 18536 ft | 366 kts | 358° |
| 2026-04-30 13:46 | 44.03329 | 16.30407 | 19049 ft | 368 kts | 358° |
| 2026-04-30 13:46 | 44.05895 | 16.30392 | 19584 ft | 370 kts | 358° |
| 2026-04-30 13:46 | 44.08484 | 16.30380 | 20044 ft | 374 kts | 358° |
| 2026-04-30 13:46 | 44.11102 | 16.30372 | 20562 ft | 377 kts | 358° |
| 2026-04-30 13:47 | 44.13694 | 16.30363 | 21063 ft | 379 kts | 358° |
| 2026-04-30 13:47 | 44.16343 | 16.30262 | 21533 ft | 382 kts | 354° |
| 2026-04-30 13:47 | 44.19036 | 16.29913 | 22001 ft | 385 kts | 352° |
| 2026-04-30 13:47 | 44.21709 | 16.29478 | 22478 ft | 387 kts | 352° |
| 2026-04-30 13:48 | 44.24392 | 16.29029 | 22935 ft | 390 kts | 352° |
| 2026-04-30 13:48 | 44.27098 | 16.28587 | 23375 ft | 393 kts | 352° |
| 2026-04-30 13:48 | 44.29819 | 16.28156 | 23852 ft | 394 kts | 352° |
| 2026-04-30 13:48 | 44.32560 | 16.27735 | 24210 ft | 399 kts | 352° |
| 2026-04-30 13:49 | 44.35332 | 16.27322 | 24636 ft | 401 kts | 352° |
| 2026-04-30 13:49 | 44.38113 | 16.26916 | 25092 ft | 403 kts | 352° |
| 2026-04-30 13:49 | 44.40909 | 16.26514 | 25484 ft | 406 kts | 352° |
| 2026-04-30 13:49 | 44.43729 | 16.26107 | 25868 ft | 408 kts | 352° |
| 2026-04-30 13:50 | 44.46561 | 16.25695 | 26284 ft | 410 kts | 352° |
| 2026-04-30 13:50 | 44.52270 | 16.24852 | 27028 ft | 415 kts | 352° |
| 2026-04-30 13:50 | 44.55150 | 16.24427 | 27385 ft | 418 kts | 351° |
| 2026-04-30 13:51 | 44.58052 | 16.23999 | 27778 ft | 420 kts | 351° |
| 2026-04-30 13:51 | 44.60960 | 16.23568 | 28131 ft | 422 kts | 351° |
| 2026-04-30 13:51 | 44.63893 | 16.23130 | 28483 ft | 424 kts | 351° |
| 2026-04-30 13:51 | 44.66836 | 16.22692 | 28834 ft | 426 kts | 351° |
| 2026-04-30 13:52 | 44.69786 | 16.22254 | 29229 ft | 427 kts | 351° |
| 2026-04-30 13:52 | 44.72733 | 16.21816 | 29714 ft | 425 kts | 351° |
| 2026-04-30 13:52 | 44.75661 | 16.21384 | 30218 ft | 422 kts | 351° |
| 2026-04-30 13:52 | 44.78571 | 16.20954 | 30705 ft | 420 kts | 351° |
| 2026-04-30 13:53 | 44.81469 | 16.20524 | 31134 ft | 418 kts | 351° |
| 2026-04-30 13:53 | 44.84364 | 16.20090 | 31509 ft | 418 kts | 351° |
| 2026-04-30 13:53 | 44.87218 | 16.19663 | 31889 ft | 417 kts | 351° |
| 2026-04-30 13:53 | 44.90101 | 16.19230 | 32239 ft | 417 kts | 351° |
| 2026-04-30 13:54 | 44.93020 | 16.18792 | 32578 ft | 416 kts | 351° |
| 2026-04-30 13:54 | 44.95898 | 16.18361 | 32926 ft | 415 kts | 351° |
| 2026-04-30 13:54 | 44.98761 | 16.17931 | 33288 ft | 414 kts | 351° |
| 2026-04-30 13:54 | 45.01626 | 16.17502 | 33575 ft | 414 kts | 351° |
| 2026-04-30 13:55 | 45.04488 | 16.17071 | 33852 ft | 414 kts | 351° |
| 2026-04-30 13:55 | 45.07347 | 16.16640 | 34146 ft | 413 kts | 351° |
| 2026-04-30 13:55 | 45.10205 | 16.16208 | 34440 ft | 412 kts | 351° |
| 2026-04-30 13:55 | 45.13014 | 16.15784 | 34702 ft | 411 kts | 351° |
| 2026-04-30 13:56 | 45.15900 | 16.15347 | 34906 ft | 413 kts | 351° |
| 2026-04-30 13:56 | 45.18722 | 16.14920 | 35131 ft | 413 kts | 351° |
| 2026-04-30 13:56 | 45.21614 | 16.14482 | 35390 ft | 412 kts | 351° |
| 2026-04-30 13:56 | 45.24429 | 16.14057 | 35636 ft | 412 kts | 351° |
| 2026-04-30 13:57 | 45.27280 | 16.13625 | 35844 ft | 412 kts | 351° |
| 2026-04-30 13:57 | 45.30167 | 16.13186 | 36077 ft | 412 kts | 352° |
| 2026-04-30 13:57 | 45.32989 | 16.12758 | 36218 ft | 414 kts | 352° |
| 2026-04-30 13:57 | 45.35902 | 16.12314 | 36284 ft | 417 kts | 352° |
| 2026-04-30 13:58 | 45.44561 | 16.11003 | 36332 ft | 415 kts | 352° |
| 2026-04-30 13:59 | 45.50237 | 16.10135 | 36347 ft | 412 kts | 352° |
| 2026-04-30 13:59 | 45.55947 | 16.09260 | 36350 ft | 414 kts | 352° |
| 2026-04-30 14:00 | 45.61722 | 16.08372 | 36351 ft | 415 kts | 352° |
| 2026-04-30 14:00 | 45.70349 | 16.07053 | 36350 ft | 415 kts | 352° |
| 2026-04-30 14:01 | 45.76075 | 16.06172 | 36355 ft | 413 kts | 352° |
| 2026-04-30 14:01 | 45.81784 | 16.05290 | 36351 ft | 414 kts | 352° |
| 2026-04-30 14:02 | 45.87481 | 16.04404 | 36350 ft | 415 kts | 352° |
| 2026-04-30 14:02 | 45.93223 | 16.03512 | 36350 ft | 415 kts | 352° |
| 2026-04-30 14:03 | 45.98970 | 16.02620 | 36352 ft | 416 kts | 352° |
| 2026-04-30 14:03 | 46.04727 | 16.01726 | 36354 ft | 416 kts | 352° |
| 2026-04-30 14:04 | 46.10483 | 16.00828 | 36356 ft | 415 kts | 352° |
| 2026-04-30 14:04 | 46.16209 | 15.99931 | 36359 ft | 413 kts | 352° |
| 2026-04-30 14:05 | 46.21926 | 15.99035 | 36359 ft | 414 kts | 352° |
| 2026-04-30 14:05 | 46.27655 | 15.98143 | 36363 ft | 414 kts | 352° |
| 2026-04-30 14:06 | 46.36260 | 15.96665 | 36369 ft | 415 kts | 351° |
| 2026-04-30 14:07 | 46.44837 | 15.94925 | 36370 ft | 414 kts | 351° |
| 2026-04-30 14:08 | 46.53361 | 15.93258 | 36371 ft | 411 kts | 352° |
| 2026-04-30 14:08 | 46.61893 | 15.91617 | 36370 ft | 413 kts | 352° |
| 2026-04-30 14:09 | 46.67590 | 15.90515 | 36370 ft | 412 kts | 352° |
| 2026-04-30 14:10 | 46.76082 | 15.88857 | 36370 ft | 412 kts | 352° |
| 2026-04-30 14:10 | 46.81752 | 15.87743 | 36365 ft | 410 kts | 352° |
| 2026-04-30 14:11 | 46.87397 | 15.86636 | 36362 ft | 409 kts | 352° |
| 2026-04-30 14:11 | 46.93048 | 15.85525 | 36354 ft | 410 kts | 352° |
| 2026-04-30 14:12 | 46.98717 | 15.84415 | 36351 ft | 411 kts | 352° |
| 2026-04-30 14:12 | 47.04384 | 15.83298 | 36346 ft | 411 kts | 353° |
| 2026-04-30 14:13 | 47.10041 | 15.82180 | 36344 ft | 409 kts | 353° |
| 2026-04-30 14:13 | 47.15635 | 15.81072 | 36348 ft | 408 kts | 353° |
| 2026-04-30 14:14 | 47.21266 | 15.79977 | 36349 ft | 408 kts | 356° |
| 2026-04-30 14:14 | 47.26942 | 15.79863 | 36360 ft | 407 kts | 2° |
| 2026-04-30 14:15 | 47.32610 | 15.80124 | 36360 ft | 408 kts | 2° |
| 2026-04-30 14:15 | 47.38282 | 15.80332 | 36360 ft | 408 kts | 2° |
| 2026-04-30 14:16 | 47.43967 | 15.80466 | 36366 ft | 408 kts | 1° |
| 2026-04-30 14:16 | 47.49629 | 15.80564 | 36369 ft | 406 kts | 1° |
| 2026-04-30 14:17 | 47.55278 | 15.80669 | 36369 ft | 406 kts | 1° |
| 2026-04-30 14:17 | 47.60914 | 15.80780 | 36379 ft | 405 kts | 1° |
| 2026-04-30 14:18 | 47.66554 | 15.80897 | 36379 ft | 406 kts | 2° |
| 2026-04-30 14:18 | 47.75022 | 15.81078 | 36380 ft | 407 kts | 2° |
| 2026-04-30 14:19 | 47.83516 | 15.81249 | 36389 ft | 406 kts | 2° |
| 2026-04-30 14:20 | 47.89151 | 15.81372 | 36391 ft | 404 kts | 2° |
| 2026-04-30 14:20 | 47.97588 | 15.81549 | 36390 ft | 405 kts | 2° |
| 2026-04-30 14:21 | 48.03187 | 15.81758 | 36393 ft | 405 kts | 3° |
| 2026-04-30 14:22 | 48.11641 | 15.82179 | 36396 ft | 405 kts | 3° |
| 2026-04-30 14:22 | 48.20098 | 15.82619 | 36399 ft | 405 kts | 3° |
| 2026-04-30 14:23 | 48.30431 | 15.83132 | 36400 ft | 404 kts | 3° |
| 2026-04-30 14:24 | 48.38841 | 15.83530 | 36401 ft | 402 kts | 3° |
| 2026-04-30 14:25 | 48.50021 | 15.84023 | 36401 ft | 402 kts | 3° |
| 2026-04-30 14:26 | 48.58414 | 15.83923 | 36398 ft | 404 kts | 355° |
| 2026-04-30 14:27 | 48.66782 | 15.82977 | 36398 ft | 399 kts | 1° |
| 2026-04-30 14:27 | 48.72306 | 15.83022 | 36399 ft | 396 kts | 3° |
| 2026-04-30 14:28 | 48.80574 | 15.83299 | 36405 ft | 398 kts | 3° |
| 2026-04-30 14:28 | 48.86105 | 15.83448 | 36406 ft | 397 kts | 1° |
| 2026-04-30 14:29 | 48.91503 | 15.81408 | 36414 ft | 408 kts | 342° |
| 2026-04-30 14:29 | 48.96569 | 15.78314 | 36410 ft | 418 kts | 342° |
| 2026-04-30 14:31 | 49.10114 | 15.70197 | 36410 ft | 416 kts | 343° |
| 2026-04-30 14:31 | 49.18196 | 15.65477 | 36407 ft | 413 kts | 344° |
| 2026-04-30 14:32 | 49.25731 | 15.61049 | 36406 ft | 414 kts | 344° |
| 2026-04-30 14:33 | 49.31078 | 15.57882 | 36407 ft | 415 kts | 344° |
| 2026-04-30 14:33 | 49.39151 | 15.53079 | 36407 ft | 414 kts | 344° |
| 2026-04-30 14:34 | 49.44520 | 15.49885 | 36409 ft | 413 kts | 344° |
| 2026-04-30 14:34 | 49.49867 | 15.46702 | 36408 ft | 412 kts | 344° |
| 2026-04-30 14:35 | 49.57893 | 15.41912 | 36410 ft | 413 kts | 344° |
| 2026-04-30 14:36 | 49.63245 | 15.38705 | 36407 ft | 413 kts | 344° |
| 2026-04-30 14:36 | 49.68600 | 15.35482 | 36409 ft | 413 kts | 344° |
| 2026-04-30 14:37 | 49.73944 | 15.32246 | 36411 ft | 412 kts | 344° |
| 2026-04-30 14:37 | 49.79285 | 15.29013 | 36414 ft | 413 kts | 344° |
| 2026-04-30 14:38 | 49.84637 | 15.25774 | 36409 ft | 412 kts | 345° |
| 2026-04-30 14:38 | 49.89971 | 15.22538 | 36410 ft | 411 kts | 345° |
| 2026-04-30 14:39 | 49.94350 | 15.19871 | 36414 ft | 411 kts | 345° |
| 2026-04-30 14:39 | 49.99672 | 15.16635 | 36418 ft | 411 kts | 344° |
| 2026-04-30 14:40 | 50.07595 | 15.11773 | 36416 ft | 407 kts | 345° |
| 2026-04-30 14:40 | 50.12844 | 15.08541 | 36415 ft | 405 kts | 345° |
| 2026-04-30 14:41 | 50.18088 | 15.05322 | 36422 ft | 406 kts | 345° |
| 2026-04-30 14:41 | 50.23347 | 15.02091 | 36426 ft | 406 kts | 345° |
| 2026-04-30 14:42 | 50.28610 | 14.98841 | 36423 ft | 408 kts | 345° |
| 2026-04-30 14:42 | 50.33874 | 14.95582 | 36428 ft | 406 kts | 345° |
| 2026-04-30 14:43 | 50.39119 | 14.92325 | 36423 ft | 405 kts | 345° |
| 2026-04-30 14:43 | 50.44357 | 14.89072 | 36427 ft | 405 kts | 345° |
| 2026-04-30 14:44 | 50.49542 | 14.85513 | 36431 ft | 414 kts | 335° |
| 2026-04-30 14:44 | 50.54293 | 14.80218 | 36429 ft | 421 kts | 331° |
| 2026-04-30 14:45 | 50.59008 | 14.74733 | 36430 ft | 421 kts | 332° |
| 2026-04-30 14:45 | 50.63750 | 14.69362 | 36434 ft | 419 kts | 332° |
| 2026-04-30 14:46 | 50.68492 | 14.64092 | 36435 ft | 416 kts | 333° |
| 2026-04-30 14:46 | 50.73222 | 14.58854 | 36433 ft | 415 kts | 333° |
| 2026-04-30 14:47 | 50.77954 | 14.53592 | 36434 ft | 417 kts | 333° |
| 2026-04-30 14:47 | 50.82655 | 14.48330 | 36440 ft | 417 kts | 333° |
| 2026-04-30 14:48 | 50.87387 | 14.43004 | 36444 ft | 417 kts | 332° |
| 2026-04-30 14:48 | 50.91789 | 14.38116 | 36441 ft | 413 kts | 339° |
| 2026-04-30 14:49 | 50.94387 | 14.36493 | 36455 ft | 396 kts | 354° |
| 2026-04-30 14:49 | 50.97088 | 14.35791 | 36446 ft | 392 kts | 358° |
| 2026-04-30 14:49 | 51.02504 | 14.34829 | 36447 ft | 392 kts | 359° |
| 2026-04-30 14:50 | 51.10637 | 14.33428 | 36449 ft | 391 kts | 359° |
| 2026-04-30 14:51 | 51.18728 | 14.31846 | 36452 ft | 390 kts | 358° |
| 2026-04-30 14:52 | 51.26804 | 14.30211 | 36453 ft | 390 kts | 358° |
| 2026-04-30 14:52 | 51.34903 | 14.28583 | 36451 ft | 391 kts | 358° |
| 2026-04-30 14:53 | 51.43004 | 14.26953 | 36453 ft | 391 kts | 358° |
| 2026-04-30 14:54 | 51.53796 | 14.24779 | 36444 ft | 391 kts | 358° |
| 2026-04-30 14:55 | 51.61865 | 14.23149 | 36443 ft | 388 kts | 358° |
| 2026-04-30 14:56 | 51.72558 | 14.20984 | 36441 ft | 389 kts | 358° |
| 2026-04-30 14:57 | 51.80614 | 14.19347 | 36444 ft | 389 kts | 358° |
| 2026-04-30 14:58 | 51.91340 | 14.17060 | 36444 ft | 391 kts | 355° |
| 2026-04-30 14:58 | 51.99344 | 14.14124 | 36435 ft | 394 kts | 353° |
| 2026-04-30 15:00 | 52.12711 | 14.09214 | 36434 ft | 392 kts | 354° |
| 2026-04-30 15:01 | 52.23356 | 14.05413 | 36434 ft | 392 kts | 354° |
| 2026-04-30 15:01 | 52.31373 | 14.02523 | 36435 ft | 394 kts | 354° |
| 2026-04-30 15:02 | 52.36639 | 14.00597 | 36434 ft | 394 kts | 354° |
| 2026-04-30 15:03 | 52.50062 | 13.95730 | 36434 ft | 396 kts | 353° |
| 2026-04-30 15:04 | 52.63484 | 13.90798 | 36433 ft | 395 kts | 353° |
| 2026-04-30 15:06 | 52.76910 | 13.85840 | 36435 ft | 397 kts | 353° |
| 2026-04-30 15:07 | 52.87707 | 13.81817 | 36434 ft | 399 kts | 353° |
| 2026-04-30 15:08 | 52.98533 | 13.77778 | 36433 ft | 399 kts | 353° |
| 2026-04-30 15:09 | 53.11195 | 13.73030 | 36434 ft | 399 kts | 352° |
| 2026-04-30 15:10 | 53.22017 | 13.68928 | 36434 ft | 399 kts | 352° |
| 2026-04-30 15:11 | 53.38265 | 13.62762 | 36434 ft | 399 kts | 352° |
| 2026-04-30 15:13 | 53.51827 | 13.57579 | 36434 ft | 400 kts | 352° |
| 2026-04-30 15:14 | 53.70853 | 13.50280 | 36434 ft | 401 kts | 352° |
| 2026-04-30 15:17 | 53.94373 | 13.35381 | 36432 ft | 417 kts | 333° |
| 2026-04-30 15:19 | 54.14205 | 13.15026 | 35338 ft | 422 kts | 335° |